createdAt,value
2023-03-29T00:00:46.354Z,2.22
2023-03-29T00:02:50.183Z,1.65
2023-03-29T00:03:54.517Z,1.65
2023-03-29T00:04:57.680Z,3.97
2023-03-29T00:06:03.215Z,1.70
2023-03-29T00:07:05.059Z,1.83
2023-03-29T00:09:10.188Z,4.20
2023-03-29T00:10:13.129Z,1.90
2023-03-29T00:11:17.931Z,2.30
2023-03-29T00:12:19.784Z,3.25
2023-03-29T00:13:21.468Z,1.40
2023-03-29T00:15:24.888Z,2.33
2023-03-29T00:16:27.018Z,3.53
2023-03-29T00:17:28.963Z,2.25
2023-03-29T00:18:30.622Z,16.25
2023-03-29T00:19:35.680Z,28.40
2023-03-29T00:20:37.491Z,18.65
2023-03-29T00:22:46.820Z,7.38
2023-03-29T00:23:50.926Z,5.18
2023-03-29T00:24:54.149Z,4.05
2023-03-29T00:25:56.562Z,2.53
2023-03-29T00:26:58.377Z,5.07
2023-03-29T00:29:01.723Z,2.95
2023-03-29T00:31:13.035Z,5.82
2023-03-29T00:32:15.586Z,4.55
2023-03-29T00:33:20.586Z,5.28
2023-03-29T00:34:30.625Z,3.05
2023-03-29T00:35:32.587Z,1.50
2023-03-29T00:36:34.630Z,1.60
2023-03-29T00:37:36.879Z,4.22
2023-03-29T00:38:39.299Z,2.65
2023-03-29T00:39:42.065Z,2.90
2023-03-29T00:40:47.020Z,4.55
2023-03-29T00:41:50.340Z,2.88
2023-03-29T00:42:52.182Z,5.15
2023-03-29T00:45:06.175Z,3.03
2023-03-29T00:46:09.044Z,4.10
2023-03-29T00:47:13.531Z,4.65
2023-03-29T00:48:24.379Z,4.13
2023-03-29T00:49:26.319Z,4.15
2023-03-29T00:50:39.443Z,2.97
2023-03-29T00:51:42.678Z,3.72
2023-03-29T00:52:48.672Z,6.50
2023-03-29T00:53:55.599Z,2.83
2023-03-29T00:55:02.029Z,2.83
2023-03-29T00:56:18.452Z,2.70
2023-03-29T00:57:21.715Z,3.92
2023-03-29T00:58:38.232Z,2.58
2023-03-29T00:59:44.680Z,3.78
2023-03-29T01:00:57.843Z,2.60
2023-03-29T01:02:05.320Z,4.93
2023-03-29T01:03:13.891Z,2.80
2023-03-29T01:04:29.250Z,1.88
2023-03-29T01:05:39.273Z,1.60
2023-03-29T01:06:43.378Z,2.17
2023-03-29T01:07:57.949Z,2.10
2023-03-29T01:09:03.106Z,1.92
2023-03-29T01:10:12.585Z,3.72
2023-03-29T01:11:22.229Z,3.65
2023-03-29T01:12:31.092Z,2.45
2023-03-29T01:13:46.534Z,2.30
2023-03-29T01:15:01.506Z,4.10
2023-03-29T01:16:04.069Z,3.53
2023-03-29T01:17:06.944Z,3.38
2023-03-29T01:18:09.539Z,2.13
2023-03-29T01:19:15.898Z,2.45
2023-03-29T01:20:30.776Z,2.08
2023-03-29T01:21:42.694Z,5.05
2023-03-29T01:23:14.318Z,2.22
2023-03-29T01:24:38.208Z,2.53
2023-03-29T01:26:17.308Z,2.65
2023-03-29T01:27:55.731Z,2.15
2023-03-29T01:29:06.958Z,1.98
2023-03-29T01:30:14.194Z,4.20
2023-03-29T01:31:25.183Z,2.80
2023-03-29T01:32:36.608Z,1.83
2023-03-29T01:33:47.624Z,3.13
2023-03-29T01:34:56.766Z,3.13
2023-03-29T01:36:19.066Z,2.17
2023-03-29T01:37:26.695Z,3.10
2023-03-29T01:38:43.188Z,2.47
2023-03-29T01:39:46.254Z,3.38
2023-03-29T01:40:48.008Z,3.83
2023-03-29T01:43:23.467Z,1.85
2023-03-29T01:44:56.431Z,2.03
2023-03-29T01:47:21.624Z,2.13
2023-03-29T01:48:31.535Z,4.25
2023-03-29T01:49:52.207Z,2.33
2023-03-29T01:51:04.587Z,1.92
2023-03-29T01:53:14.034Z,2.80
2023-03-29T01:54:26.311Z,2.42
2023-03-29T01:55:41.580Z,4.40
2023-03-29T01:56:45.604Z,2.05
2023-03-29T01:57:49.209Z,3.67
2023-03-29T01:58:58.306Z,3.13
2023-03-29T02:00:05.423Z,1.67
2023-03-29T02:01:19.086Z,2.40
2023-03-29T02:02:23.132Z,3.08
2023-03-29T02:03:28.176Z,3.92
2023-03-29T02:04:38.529Z,4.20
2023-03-29T02:05:46.005Z,3.08
2023-03-29T02:06:50.157Z,1.58
2023-03-29T02:07:52.946Z,7.68
2023-03-29T02:08:55.773Z,2.40
2023-03-29T02:09:58.872Z,4.10
2023-03-29T02:11:01.541Z,3.42
2023-03-29T02:12:05.001Z,1.52
2023-03-29T02:13:10.079Z,1.88
2023-03-29T02:14:13.849Z,2.63
2023-03-29T02:15:19.402Z,2.90
2023-03-29T02:16:21.268Z,4.57
2023-03-29T02:17:25.806Z,5.28
2023-03-29T02:18:27.781Z,2.15
2023-03-29T02:19:29.762Z,3.35
2023-03-29T02:20:40.579Z,1.98
2023-03-29T02:21:48.389Z,1.60
2023-03-29T02:23:02.109Z,4.80
2023-03-29T02:24:11.811Z,2.83
2023-03-29T02:25:13.799Z,1.70
2023-03-29T02:26:17.588Z,1.73
2023-03-29T02:27:25.370Z,2.80
2023-03-29T02:28:28.563Z,2.60
2023-03-29T02:29:30.701Z,2.55
2023-03-29T02:30:57.731Z,4.28
2023-03-29T02:32:21.968Z,1.65
2023-03-29T02:33:52.096Z,2.22
2023-03-29T02:35:16.845Z,4.03
2023-03-29T02:36:27.413Z,3.03
2023-03-29T02:37:32.734Z,2.17
2023-03-29T02:38:39.110Z,3.45
2023-03-29T02:39:42.053Z,1.77
2023-03-29T02:40:46.786Z,2.30
2023-03-29T02:41:51.113Z,1.80
2023-03-29T02:42:55.639Z,2.45
2023-03-29T02:44:00.409Z,4.13
2023-03-29T02:45:04.962Z,2.25
2023-03-29T02:46:08.003Z,1.55
2023-03-29T02:47:15.633Z,1.70
2023-03-29T02:48:20.845Z,6.15
2023-03-29T02:49:23.599Z,2.50
2023-03-29T02:50:30.716Z,5.10
2023-03-29T02:51:34.363Z,3.00
2023-03-29T02:52:43.478Z,2.17
2023-03-29T02:53:52.610Z,5.85
2023-03-29T02:54:55.871Z,4.07
2023-03-29T02:56:02.337Z,4.68
2023-03-29T02:57:07.586Z,2.53
2023-03-29T02:58:09.331Z,7.18
2023-03-29T02:59:14.399Z,2.53
2023-03-29T03:00:18.820Z,2.10
2023-03-29T03:01:20.782Z,2.08
2023-03-29T03:02:27.818Z,2.10
2023-03-29T03:03:33.090Z,4.50
2023-03-29T03:04:36.357Z,3.38
2023-03-29T03:05:39.140Z,2.72
2023-03-29T03:06:41.695Z,3.55
2023-03-29T03:07:46.114Z,2.03
2023-03-29T03:08:48.647Z,1.88
2023-03-29T03:10:52.580Z,5.25
2023-03-29T03:11:54.334Z,3.95
2023-03-29T03:12:58.936Z,3.78
2023-03-29T03:14:00.956Z,3.42
2023-03-29T03:15:08.004Z,3.03
2023-03-29T03:16:13.276Z,2.00
2023-03-29T03:17:18.746Z,3.70
2023-03-29T03:18:22.600Z,3.08
2023-03-29T03:19:24.806Z,4.93
2023-03-29T03:20:26.573Z,7.55
2023-03-29T03:21:30.085Z,2.97
2023-03-29T03:22:35.048Z,1.98
2023-03-29T03:23:39.716Z,2.58
2023-03-29T03:24:41.961Z,2.53
2023-03-29T03:25:45.997Z,2.13
2023-03-29T03:26:49.959Z,2.03
2023-03-29T03:27:54.207Z,2.80
2023-03-29T03:29:01.189Z,3.03
2023-03-29T03:30:23.327Z,2.40
2023-03-29T03:31:30.796Z,2.60
2023-03-29T03:32:50.002Z,2.85
2023-03-29T03:34:14.203Z,3.38
2023-03-29T03:35:23.758Z,8.52
2023-03-29T03:36:26.285Z,7.25
2023-03-29T03:37:29.337Z,4.07
2023-03-29T03:39:34.650Z,5.20
2023-03-29T03:40:39.370Z,2.80
2023-03-29T03:41:41.139Z,4.47
2023-03-29T03:42:42.970Z,4.60
2023-03-29T03:43:48.776Z,4.47
2023-03-29T03:44:51.078Z,5.25
2023-03-29T03:46:19.228Z,4.07
2023-03-29T03:47:21.451Z,3.22
2023-03-29T03:48:25.801Z,3.08
2023-03-29T03:49:40.922Z,2.13
2023-03-29T03:50:49.037Z,4.60
2023-03-29T03:51:52.592Z,2.90
2023-03-29T03:52:54.569Z,3.28
2023-03-29T03:53:56.723Z,5.35
2023-03-29T03:55:10.890Z,3.90
2023-03-29T03:57:39.086Z,5.85
2023-03-29T03:58:46.283Z,2.45
2023-03-29T03:59:49.205Z,2.28
2023-03-29T04:00:55.973Z,5.82
2023-03-29T04:02:11.147Z,2.22
2023-03-29T04:03:18.021Z,2.60
2023-03-29T04:04:19.914Z,5.13
2023-03-29T04:05:46.440Z,4.63
2023-03-29T04:06:50.565Z,1.88
2023-03-29T04:08:12.581Z,2.80
2023-03-29T04:10:56.763Z,2.03
2023-03-29T04:12:03.547Z,2.05
2023-03-29T04:13:05.959Z,2.45
2023-03-29T04:14:11.457Z,2.08
2023-03-29T04:15:27.046Z,2.00
2023-03-29T04:16:37.611Z,4.13
2023-03-29T04:18:00.637Z,5.35
2023-03-29T04:19:08.326Z,4.57
2023-03-29T04:20:12.367Z,9.57
2023-03-29T04:21:16.972Z,5.55
2023-03-29T04:22:19.760Z,2.00
2023-03-29T04:23:21.454Z,3.53
2023-03-29T04:24:24.941Z,2.90
2023-03-29T04:25:46.601Z,4.78
2023-03-29T04:27:17.332Z,2.80
2023-03-29T04:28:19.596Z,1.88
2023-03-29T04:29:39.215Z,4.35
2023-03-29T04:44:28.931Z,2.83
2023-03-29T04:45:33.280Z,1.80
2023-03-29T04:46:58.333Z,6.15
2023-03-29T04:48:26.577Z,3.00
2023-03-29T04:49:29.018Z,5.10
2023-03-29T04:50:30.922Z,2.72
2023-03-29T04:51:33.181Z,3.80
2023-03-29T04:52:35.532Z,6.18
2023-03-29T04:53:39.332Z,3.70
2023-03-29T04:54:41.166Z,7.97
2023-03-29T04:55:55.617Z,5.03
2023-03-29T04:57:17.081Z,6.50
2023-03-29T04:58:32.226Z,3.17
2023-03-29T04:59:35.143Z,3.28
2023-03-29T05:00:42.977Z,5.18
2023-03-29T05:02:05.327Z,3.92
2023-03-29T05:03:07.429Z,2.40
2023-03-29T05:04:14.177Z,3.90
2023-03-29T05:05:29.267Z,2.72
2023-03-29T05:06:37.299Z,1.77
2023-03-29T05:07:41.150Z,3.58
2023-03-29T05:08:44.690Z,18.15
2023-03-29T05:10:07.065Z,13.68
2023-03-29T05:11:10.859Z,5.47
2023-03-29T05:12:12.970Z,3.75
2023-03-29T05:13:26.461Z,2.70
2023-03-29T05:15:32.737Z,8.55
2023-03-29T05:16:35.650Z,10.85
2023-03-29T05:17:37.788Z,4.70
2023-03-29T05:18:43.735Z,2.72
2023-03-29T05:19:48.422Z,3.15
2023-03-29T05:20:53.120Z,3.20
2023-03-29T05:21:56.124Z,6.85
2023-03-29T05:23:00.514Z,2.08
2023-03-29T05:24:31.034Z,2.85
2023-03-29T05:25:36.168Z,4.72
2023-03-29T05:26:38.473Z,4.97
2023-03-29T05:27:40.483Z,3.55
2023-03-29T05:28:44.254Z,8.52
2023-03-29T05:29:46.644Z,3.13
2023-03-29T05:31:11.288Z,4.55
2023-03-29T05:32:15.001Z,7.20
2023-03-29T05:33:19.541Z,3.60
2023-03-29T05:34:21.342Z,3.80
2023-03-29T05:35:30.318Z,3.25
2023-03-29T05:36:33.862Z,4.00
2023-03-29T05:37:35.778Z,2.50
2023-03-29T05:38:41.121Z,3.30
2023-03-29T05:39:43.177Z,4.43
2023-03-29T05:40:44.998Z,5.25
2023-03-29T05:42:19.243Z,5.60
2023-03-29T05:44:30.382Z,6.38
2023-03-29T05:45:40.447Z,9.60
2023-03-29T05:46:42.188Z,5.78
2023-03-29T05:47:48.528Z,7.78
2023-03-29T05:48:50.609Z,8.20
2023-03-29T05:49:53.312Z,11.00
2023-03-29T05:50:59.412Z,7.93
2023-03-29T05:52:04.094Z,8.93
2023-03-29T05:53:08.000Z,6.60
2023-03-29T05:54:09.939Z,8.52
2023-03-29T05:55:11.975Z,6.57
2023-03-29T05:56:16.295Z,6.70
2023-03-29T05:57:18.474Z,5.63
2023-03-29T05:59:24.547Z,7.03
2023-03-29T06:00:30.025Z,21.40
2023-03-29T06:01:46.966Z,86.03
2023-03-29T06:02:52.845Z,72.35
2023-03-29T06:03:57.896Z,34.30
2023-03-29T06:05:07.085Z,13.77
2023-03-29T06:06:16.458Z,9.18
2023-03-29T06:07:18.443Z,12.23
2023-03-29T06:08:35.747Z,9.30
2023-03-29T06:09:42.765Z,11.00
2023-03-29T06:10:45.723Z,10.30
2023-03-29T06:12:21.028Z,7.65
2023-03-29T06:13:34.078Z,6.80
2023-03-29T06:14:36.488Z,9.18
2023-03-29T06:15:57.364Z,8.52
2023-03-29T06:17:01.871Z,8.68
2023-03-29T06:18:04.584Z,8.55
2023-03-29T06:19:07.329Z,8.18
2023-03-29T06:20:11.782Z,10.55
2023-03-29T06:21:16.860Z,12.20
2023-03-29T06:22:18.498Z,8.52
2023-03-29T06:23:21.369Z,8.50
2023-03-29T06:24:25.020Z,7.70
2023-03-29T06:25:34.152Z,5.63
2023-03-29T06:26:38.667Z,7.05
2023-03-29T06:27:40.375Z,4.30
2023-03-29T06:29:43.958Z,8.88
2023-03-29T06:33:10.619Z,7.80
2023-03-29T06:35:50.403Z,3.38
2023-03-29T06:36:57.687Z,9.32
2023-03-29T06:37:59.386Z,8.60
2023-03-29T06:39:08.769Z,13.80
2023-03-29T06:40:29.408Z,23.48
2023-03-29T06:41:33.411Z,10.35
2023-03-29T06:42:43.180Z,16.08
2023-03-29T06:44:11.652Z,13.60
2023-03-29T06:45:29.317Z,8.32
2023-03-29T06:46:34.216Z,9.80
2023-03-29T06:47:40.945Z,7.10
2023-03-29T06:48:42.765Z,6.05
2023-03-29T06:51:02.227Z,5.82
2023-03-29T06:52:05.947Z,8.07
2023-03-29T06:53:07.910Z,10.40
2023-03-29T06:54:10.370Z,8.02
2023-03-29T06:55:17.753Z,6.32
2023-03-29T06:56:19.544Z,8.50
2023-03-29T06:57:28.601Z,8.35
2023-03-29T06:58:30.547Z,12.57
2023-03-29T06:59:43.175Z,9.40
2023-03-29T07:00:51.765Z,10.07
2023-03-29T07:02:02.766Z,12.15
2023-03-29T07:03:27.940Z,8.68
2023-03-29T07:04:32.232Z,10.18
2023-03-29T07:05:48.381Z,9.52
2023-03-29T07:07:01.474Z,15.68
2023-03-29T07:08:07.813Z,17.75
2023-03-29T07:09:32.310Z,11.68
2023-03-29T07:10:53.385Z,7.75
2023-03-29T07:12:01.451Z,13.43
2023-03-29T07:14:04.724Z,8.75
2023-03-29T07:15:07.777Z,12.23
2023-03-29T07:16:32.685Z,18.40
2023-03-29T07:17:50.569Z,15.45
2023-03-29T07:18:52.723Z,13.77
2023-03-29T07:20:17.838Z,15.80
2023-03-29T07:21:22.896Z,9.88
2023-03-29T07:22:24.561Z,6.43
2023-03-29T07:23:30.943Z,10.85
2023-03-29T07:25:34.352Z,9.77
2023-03-29T07:26:36.555Z,5.70
2023-03-29T07:27:40.274Z,17.38
2023-03-29T07:28:43.155Z,18.33
2023-03-29T07:29:45.094Z,18.20
2023-03-29T07:30:46.881Z,14.02
2023-03-29T07:31:51.812Z,14.15
2023-03-29T07:33:14.482Z,13.55
2023-03-29T07:34:37.172Z,14.40
2023-03-29T07:35:43.451Z,14.73
2023-03-29T07:36:45.204Z,18.15
2023-03-29T07:38:49.934Z,7.13
2023-03-29T07:39:54.593Z,13.38
2023-03-29T07:41:10.738Z,13.30
2023-03-29T07:42:28.922Z,9.98
2023-03-29T07:43:30.885Z,12.25
2023-03-29T07:44:33.606Z,20.30
2023-03-29T07:45:35.571Z,19.83
2023-03-29T07:46:44.525Z,17.55
2023-03-29T07:47:53.636Z,14.63
2023-03-29T07:48:57.761Z,15.35
2023-03-29T07:49:59.752Z,14.00
2023-03-29T07:51:02.001Z,12.75
2023-03-29T07:52:09.164Z,14.77
2023-03-29T07:53:17.100Z,12.27
2023-03-29T07:54:18.880Z,9.95
2023-03-29T07:55:47.581Z,12.75
2023-03-29T07:57:10.977Z,16.35
2023-03-29T07:58:20.159Z,15.82
2023-03-29T07:59:22.286Z,20.10
2023-03-29T08:00:45.892Z,14.27
2023-03-29T08:02:11.055Z,13.80
2023-03-29T08:03:24.903Z,14.55
2023-03-29T08:04:28.929Z,12.82
2023-03-29T08:05:49.560Z,11.75
2023-03-29T08:06:52.424Z,10.55
2023-03-29T08:07:59.406Z,10.40
2023-03-29T08:09:14.705Z,9.88
2023-03-29T08:10:21.108Z,14.13
2023-03-29T08:11:46.779Z,11.98
2023-03-29T08:12:54.510Z,16.58
2023-03-29T08:14:03.358Z,11.50
2023-03-29T08:15:28.241Z,7.68
2023-03-29T08:16:30.046Z,11.18
2023-03-29T08:17:41.690Z,15.23
2023-03-29T08:18:45.856Z,13.55
2023-03-29T08:19:51.007Z,11.00
2023-03-29T08:20:55.951Z,9.43
2023-03-29T08:23:01.323Z,13.18
2023-03-29T08:24:17.584Z,10.85
2023-03-29T08:25:23.943Z,10.73
2023-03-29T08:26:28.290Z,11.90
2023-03-29T08:27:33.106Z,8.40
2023-03-29T08:28:35.711Z,12.98
2023-03-29T08:30:39.707Z,9.38
2023-03-29T08:31:41.634Z,6.75
2023-03-29T08:33:51.575Z,4.22
2023-03-29T08:35:16.053Z,9.15
2023-03-29T08:36:26.431Z,8.13
2023-03-29T08:37:32.680Z,7.65
2023-03-29T08:38:35.465Z,6.32
2023-03-29T08:39:38.127Z,11.45
2023-03-29T08:41:31.888Z,6.88
2023-03-29T08:43:09.821Z,13.10
2023-03-29T08:45:01.351Z,13.77
2023-03-29T08:46:16.435Z,10.00
2023-03-29T08:47:32.853Z,8.45
2023-03-29T08:48:47.478Z,15.02
2023-03-29T08:49:55.603Z,12.35
2023-03-29T08:51:15.469Z,11.05
2023-03-29T08:52:25.797Z,14.57
2023-03-29T08:53:44.152Z,10.65
2023-03-29T08:55:31.985Z,10.15
2023-03-29T08:56:54.383Z,6.10
2023-03-29T08:58:08.454Z,10.65
2023-03-29T08:59:22.752Z,5.97
2023-03-29T09:00:28.537Z,9.65
2023-03-29T09:01:35.349Z,6.93
2023-03-29T09:02:38.278Z,10.95
2023-03-29T09:03:50.294Z,8.45
2023-03-29T09:05:29.395Z,10.98
2023-03-29T09:06:58.224Z,7.65
2023-03-29T09:08:13.433Z,10.05
2023-03-29T09:09:20.701Z,7.35
2023-03-29T09:10:53.544Z,8.63
2023-03-29T09:12:23.264Z,6.00
2023-03-29T09:13:32.781Z,6.10
2023-03-29T09:14:48.421Z,7.88
2023-03-29T09:16:01.405Z,10.82
2023-03-29T09:17:32.549Z,7.47
2023-03-29T09:19:06.337Z,7.47
2023-03-29T09:20:22.857Z,6.28
2023-03-29T09:21:46.459Z,8.38
2023-03-29T09:23:27.272Z,6.38
2023-03-29T09:25:21.285Z,6.60
2023-03-29T09:26:47.646Z,5.80
2023-03-29T09:28:32.116Z,9.30
2023-03-29T09:30:12.259Z,10.07
2023-03-29T09:31:37.186Z,6.30
2023-03-29T09:32:52.583Z,11.68
2023-03-29T09:33:59.771Z,9.80
2023-03-29T09:35:18.428Z,10.02
2023-03-29T09:36:40.652Z,7.00
2023-03-29T09:37:42.548Z,7.07
2023-03-29T09:38:50.903Z,8.00
2023-03-29T09:39:53.526Z,7.45
2023-03-29T09:41:16.394Z,7.95
2023-03-29T09:42:19.866Z,4.47
2023-03-29T09:43:36.180Z,12.73
2023-03-29T09:45:08.867Z,8.88
2023-03-29T09:46:34.327Z,11.00
2023-03-29T09:47:46.268Z,9.23
2023-03-29T09:48:50.201Z,12.20
2023-03-29T09:49:57.592Z,8.52
2023-03-29T09:51:01.516Z,7.68
2023-03-29T09:52:09.196Z,7.15
2023-03-29T09:53:11.039Z,7.70
2023-03-29T09:54:20.755Z,5.65
2023-03-29T09:55:44.880Z,9.25
2023-03-29T09:57:13.841Z,7.22
2023-03-29T09:58:27.632Z,12.52
2023-03-29T09:59:30.696Z,8.48
2023-03-29T10:00:34.749Z,7.45
2023-03-29T10:01:41.983Z,10.27
2023-03-29T10:02:53.747Z,5.70
2023-03-29T10:04:01.560Z,9.30
2023-03-29T10:05:07.461Z,10.88
2023-03-29T10:06:12.205Z,9.82
2023-03-29T10:07:20.660Z,11.32
2023-03-29T10:08:50.887Z,4.53
2023-03-29T10:09:58.417Z,8.88
2023-03-29T10:11:03.686Z,13.77
2023-03-29T10:12:07.094Z,10.52
2023-03-29T10:13:46.097Z,12.15
2023-03-29T10:14:57.493Z,9.38
2023-03-29T10:16:04.451Z,13.63
2023-03-29T10:17:22.301Z,7.05
2023-03-29T10:18:27.675Z,6.05
2023-03-29T10:19:34.992Z,14.15
2023-03-29T10:20:40.166Z,10.43
2023-03-29T10:21:42.411Z,7.68
2023-03-29T10:22:54.321Z,9.95
2023-03-29T10:25:02.141Z,11.90
2023-03-29T10:26:23.999Z,8.15
2023-03-29T10:27:30.786Z,7.25
2023-03-29T10:28:35.073Z,8.75
2023-03-29T10:29:41.057Z,6.53
2023-03-29T10:30:45.912Z,6.07
2023-03-29T10:31:47.970Z,10.90
2023-03-29T10:32:58.033Z,5.95
2023-03-29T10:34:06.335Z,6.32
2023-03-29T10:35:12.974Z,13.43
2023-03-29T10:36:15.464Z,9.43
2023-03-29T10:37:19.528Z,8.27
2023-03-29T10:38:24.521Z,11.40
2023-03-29T10:39:29.750Z,7.57
2023-03-29T10:40:36.008Z,11.25
2023-03-29T10:41:37.798Z,7.63
2023-03-29T10:42:49.901Z,9.50
2023-03-29T10:43:52.066Z,10.75
2023-03-29T10:44:59.540Z,9.85
2023-03-29T10:46:19.458Z,7.53
2023-03-29T10:47:25.163Z,9.15
2023-03-29T10:48:30.769Z,8.52
2023-03-29T10:49:41.111Z,6.03
2023-03-29T10:50:48.309Z,12.07
2023-03-29T10:51:52.314Z,7.88
2023-03-29T10:52:56.960Z,7.88
2023-03-29T10:53:59.355Z,7.20
2023-03-29T10:55:01.090Z,9.27
2023-03-29T10:57:56.208Z,10.60
2023-03-29T10:59:16.250Z,7.70
2023-03-29T11:00:33.021Z,8.80
2023-03-29T11:01:42.131Z,7.78
2023-03-29T11:03:17.060Z,8.30
2023-03-29T11:04:19.967Z,12.60
2023-03-29T11:05:46.638Z,5.07
2023-03-29T11:07:28.791Z,5.13
2023-03-29T11:08:36.930Z,6.38
2023-03-29T11:09:57.317Z,14.23
2023-03-29T11:11:35.220Z,4.50
2023-03-29T11:12:40.009Z,4.88
2023-03-29T11:13:59.347Z,11.40
2023-03-29T11:15:20.435Z,6.68
2023-03-29T11:16:31.074Z,5.88
2023-03-29T11:17:44.723Z,11.90
2023-03-29T11:19:09.318Z,7.45
2023-03-29T11:20:43.564Z,7.80
2023-03-29T11:21:45.722Z,6.22
2023-03-29T11:23:16.431Z,10.93
2023-03-29T11:24:50.613Z,8.25
2023-03-29T11:25:54.867Z,7.03
2023-03-29T11:27:07.305Z,11.23
2023-03-29T11:28:35.290Z,13.52
2023-03-29T11:30:06.567Z,6.05
2023-03-29T11:31:27.198Z,14.93
2023-03-29T11:32:51.931Z,5.68
2023-03-29T11:34:06.132Z,6.30
2023-03-29T11:35:42.792Z,7.57
2023-03-29T11:36:57.793Z,11.40
2023-03-29T11:38:19.864Z,10.00
2023-03-29T11:39:41.717Z,8.23
2023-03-29T11:41:20.603Z,12.23
2023-03-29T11:42:32.212Z,11.30
2023-03-29T11:44:02.411Z,11.07
2023-03-29T11:45:06.138Z,10.10
2023-03-29T11:46:11.082Z,9.38
2023-03-29T11:47:37.255Z,7.10
2023-03-29T11:48:55.595Z,10.30
2023-03-29T11:50:03.736Z,6.55
2023-03-29T11:51:15.524Z,12.65
2023-03-29T11:52:29.047Z,12.02
2023-03-29T11:53:43.357Z,11.07
2023-03-29T11:55:18.271Z,7.55
2023-03-29T11:56:29.177Z,10.77
2023-03-29T11:57:56.970Z,9.98
2023-03-29T11:59:04.698Z,10.68
2023-03-29T12:00:22.329Z,10.18
2023-03-29T12:01:31.698Z,12.80
2023-03-29T12:02:40.301Z,10.27
2023-03-29T12:04:02.165Z,15.68
2023-03-29T12:05:13.769Z,8.98
2023-03-29T12:06:34.811Z,11.20
2023-03-29T12:07:43.863Z,11.98
2023-03-29T12:08:56.670Z,10.82
2023-03-29T12:10:16.725Z,7.85
2023-03-29T12:11:18.826Z,10.82
2023-03-29T12:12:48.283Z,12.90
2023-03-29T12:14:03.726Z,11.73
2023-03-29T12:15:11.255Z,7.63
2023-03-29T12:16:32.604Z,4.22
2023-03-29T12:17:41.914Z,7.97
2023-03-29T12:18:48.393Z,10.27
2023-03-29T12:20:01.641Z,9.98
2023-03-29T12:21:11.890Z,7.15
2023-03-29T12:22:13.818Z,13.75
2023-03-29T12:23:18.372Z,9.07
2023-03-29T12:24:20.856Z,8.52
2023-03-29T12:25:38.079Z,10.77
2023-03-29T12:26:46.469Z,13.07
2023-03-29T12:28:04.966Z,10.57
2023-03-29T12:29:21.732Z,9.57
2023-03-29T12:30:27.286Z,9.93
2023-03-29T12:31:32.538Z,12.27
2023-03-29T12:33:05.052Z,8.93
2023-03-29T12:34:35.095Z,14.00
2023-03-29T12:36:04.605Z,8.30
2023-03-29T12:37:52.765Z,7.60
2023-03-29T12:39:31.373Z,9.63
2023-03-29T12:41:02.141Z,7.00
2023-03-29T12:42:53.516Z,13.15
2023-03-29T12:44:23.527Z,5.80
2023-03-29T12:45:48.364Z,11.82
2023-03-29T12:46:59.960Z,10.60
2023-03-29T12:48:01.910Z,9.48
2023-03-29T12:49:19.855Z,15.07
2023-03-29T12:50:28.590Z,12.25
2023-03-29T12:51:33.069Z,13.07
2023-03-29T12:52:36.653Z,10.10
2023-03-29T12:53:50.893Z,11.18
2023-03-29T12:54:57.971Z,10.63
2023-03-29T12:56:02.998Z,10.90
2023-03-29T12:57:45.015Z,11.48
2023-03-29T12:59:05.346Z,9.27
2023-03-29T13:00:20.472Z,11.77
2023-03-29T13:01:25.026Z,11.38
2023-03-29T13:02:37.087Z,13.73
2023-03-29T13:05:01.533Z,7.97
2023-03-29T13:07:16.958Z,14.20
2023-03-29T13:08:35.128Z,8.10
2023-03-29T13:09:53.462Z,7.18
2023-03-29T13:10:59.147Z,9.93
2023-03-29T13:12:08.851Z,9.13
2023-03-29T13:13:26.535Z,11.32
2023-03-29T13:14:31.906Z,11.07
2023-03-29T13:15:35.584Z,9.40
2023-03-29T13:16:40.541Z,7.80
2023-03-29T13:17:43.288Z,11.68
2023-03-29T13:19:13.716Z,12.05
2023-03-29T13:20:43.289Z,11.82
2023-03-29T13:21:55.489Z,15.63
2023-03-29T13:24:37.140Z,9.02
2023-03-29T13:26:00.272Z,17.67
2023-03-29T13:27:05.283Z,12.00
2023-03-29T13:28:37.791Z,13.13
2023-03-29T13:29:51.400Z,12.68
2023-03-29T13:30:54.078Z,9.25
2023-03-29T13:31:58.696Z,13.77
2023-03-29T13:33:09.704Z,16.05
2023-03-29T13:34:11.866Z,10.18
2023-03-29T13:35:26.770Z,16.13
2023-03-29T13:36:58.736Z,13.43
2023-03-29T13:38:03.666Z,7.22
2023-03-29T13:39:16.327Z,16.60
2023-03-29T13:40:33.220Z,12.55
2023-03-29T13:41:41.149Z,8.80
2023-03-29T13:42:43.088Z,13.88
2023-03-29T13:43:54.168Z,10.95
2023-03-29T13:45:13.204Z,16.83
2023-03-29T13:46:41.359Z,14.55
2023-03-29T13:47:58.437Z,15.75
2023-03-29T13:49:19.789Z,12.48
2023-03-29T13:50:36.901Z,9.98
2023-03-29T13:51:42.067Z,11.32
2023-03-29T13:53:11.040Z,12.10
2023-03-29T13:54:13.089Z,12.40
2023-03-29T13:55:26.318Z,14.93
2023-03-29T13:56:55.095Z,9.75
2023-03-29T13:58:04.174Z,9.10
2023-03-29T13:59:15.136Z,10.52
2023-03-29T14:00:23.171Z,14.77
2023-03-29T14:02:02.914Z,13.40
2023-03-29T14:03:14.471Z,11.00
2023-03-29T14:04:21.914Z,12.82
2023-03-29T14:05:31.490Z,11.27
2023-03-29T14:06:37.210Z,16.52
2023-03-29T14:07:45.588Z,15.75
2023-03-29T14:08:49.485Z,14.73
2023-03-29T14:09:51.586Z,14.00
2023-03-29T14:10:54.437Z,15.07
2023-03-29T14:11:58.588Z,11.73
2023-03-29T14:13:03.834Z,13.20
2023-03-29T14:14:08.247Z,9.27
2023-03-29T14:15:21.447Z,10.30
2023-03-29T14:16:31.471Z,9.05
2023-03-29T14:17:36.595Z,9.88
2023-03-29T14:18:42.320Z,10.00
2023-03-29T14:19:44.575Z,13.75
2023-03-29T14:20:53.604Z,14.27
2023-03-29T14:22:01.707Z,11.02
2023-03-29T14:23:19.270Z,14.43
2023-03-29T14:24:23.387Z,11.57
2023-03-29T14:25:29.484Z,9.95
2023-03-29T14:26:33.530Z,15.63
2023-03-29T14:27:37.264Z,19.65
2023-03-29T14:28:46.853Z,14.18
2023-03-29T14:29:51.561Z,12.30
2023-03-29T14:30:54.240Z,11.98
2023-03-29T14:32:13.833Z,17.42
2023-03-29T14:33:38.093Z,13.00
2023-03-29T14:34:40.676Z,10.75
2023-03-29T14:35:42.725Z,16.85
2023-03-29T14:36:46.415Z,11.65
2023-03-29T14:37:48.790Z,14.32
2023-03-29T14:39:01.904Z,13.45
2023-03-29T14:40:08.763Z,11.20
2023-03-29T14:41:10.545Z,15.63
2023-03-29T14:43:22.384Z,13.55
2023-03-29T14:44:33.121Z,14.35
2023-03-29T14:45:37.941Z,13.25
2023-03-29T14:46:43.137Z,18.85
2023-03-29T14:47:47.332Z,11.45
2023-03-29T14:48:49.380Z,14.35
2023-03-29T14:49:51.317Z,10.52
2023-03-29T14:50:53.347Z,19.45
2023-03-29T14:51:57.657Z,17.52
2023-03-29T14:53:02.198Z,17.17
2023-03-29T14:54:05.702Z,16.25
2023-03-29T14:55:11.144Z,18.05
2023-03-29T14:56:18.063Z,14.90
2023-03-29T14:57:24.592Z,16.42
2023-03-29T14:58:32.915Z,14.18
2023-03-29T14:59:34.769Z,20.55
2023-03-29T15:00:42.564Z,12.82
2023-03-29T15:01:44.719Z,13.05
2023-03-29T15:02:54.760Z,13.50
2023-03-29T15:04:03.336Z,15.23
2023-03-29T15:05:07.552Z,13.32
2023-03-29T15:06:10.258Z,14.75
2023-03-29T15:07:14.096Z,13.88
2023-03-29T15:08:21.430Z,15.25
2023-03-29T15:09:29.346Z,12.32
2023-03-29T15:10:36.751Z,11.70
2023-03-29T15:11:40.863Z,15.82
2023-03-29T15:12:42.863Z,16.98
2023-03-29T15:13:46.640Z,12.32
2023-03-29T15:14:51.587Z,15.95
2023-03-29T15:15:58.864Z,15.52
2023-03-29T15:17:04.125Z,14.25
2023-03-29T15:18:08.022Z,14.38
2023-03-29T15:19:19.470Z,13.98
2023-03-29T15:20:26.086Z,15.93
2023-03-29T15:21:36.159Z,11.32
2023-03-29T15:22:39.971Z,19.48
2023-03-29T15:23:56.121Z,21.35
2023-03-29T15:24:58.491Z,20.83
2023-03-29T15:26:09.616Z,16.88
2023-03-29T15:27:15.895Z,15.20
2023-03-29T15:28:32.467Z,13.98
2023-03-29T15:29:37.045Z,13.93
2023-03-29T15:30:54.229Z,17.67
2023-03-29T15:32:04.875Z,16.17
2023-03-29T15:33:15.046Z,11.30
2023-03-29T15:34:26.813Z,17.10
2023-03-29T15:35:28.692Z,14.05
2023-03-29T15:36:31.554Z,17.02
2023-03-29T15:37:33.617Z,16.67
2023-03-29T15:38:43.796Z,14.77
2023-03-29T15:39:51.049Z,16.20
2023-03-29T15:40:53.192Z,18.75
2023-03-29T15:41:56.872Z,12.35
2023-03-29T15:42:59.062Z,16.65
2023-03-29T15:44:00.765Z,13.90
2023-03-29T15:46:05.731Z,10.18
2023-03-29T15:47:12.119Z,14.13
2023-03-29T15:48:26.434Z,16.95
2023-03-29T15:49:30.750Z,19.38
2023-03-29T15:50:32.497Z,18.20
2023-03-29T15:52:36.220Z,11.55
2023-03-29T15:53:41.003Z,15.23
2023-03-29T15:54:45.800Z,18.15
2023-03-29T15:55:51.316Z,24.75
2023-03-29T15:56:56.988Z,15.23
2023-03-29T15:57:59.227Z,19.60
2023-03-29T15:59:01.714Z,16.88
2023-03-29T16:00:07.892Z,16.20
2023-03-29T16:01:33.621Z,15.18
2023-03-29T16:02:35.958Z,13.18
2023-03-29T16:03:39.056Z,16.05
2023-03-29T16:04:40.730Z,10.77
2023-03-29T16:06:48.669Z,14.52
2023-03-29T16:07:50.600Z,15.18
2023-03-29T16:08:52.339Z,20.75
2023-03-29T16:10:55.741Z,13.70
2023-03-29T16:12:00.381Z,13.88
2023-03-29T16:13:02.000Z,18.30
2023-03-29T16:14:23.133Z,18.15
2023-03-29T16:15:27.200Z,13.75
2023-03-29T16:16:28.945Z,14.52
2023-03-29T16:17:34.321Z,14.75
2023-03-29T16:18:38.469Z,13.98